createdAt,value
2023-03-21T00:00:43.708Z,1.20
2023-03-21T00:03:12.783Z,1.20
2023-03-21T00:05:43.103Z,0.95
2023-03-21T00:08:12.342Z,1.10
2023-03-21T00:10:43.488Z,0.90
2023-03-21T00:13:14.351Z,1.13
2023-03-21T00:16:04.267Z,1.10
2023-03-21T00:18:33.218Z,1.17
2023-03-21T00:21:35.531Z,1.30
2023-03-21T00:23:48.645Z,0.83
2023-03-21T00:26:17.298Z,0.90
2023-03-21T00:28:46.265Z,1.00
2023-03-21T00:31:12.831Z,1.05
2023-03-21T00:33:39.566Z,1.15
2023-03-21T00:36:10.564Z,0.97
2023-03-21T00:38:40.987Z,1.33
2023-03-21T00:41:23.309Z,1.52
2023-03-21T00:44:04.144Z,1.13
2023-03-21T00:46:44.052Z,1.13
2023-03-21T00:49:16.098Z,1.43
2023-03-21T00:51:45.397Z,1.20
2023-03-21T00:54:12.831Z,1.80
2023-03-21T00:56:39.531Z,1.60
2023-03-21T00:59:08.134Z,1.70
2023-03-21T01:01:34.916Z,1.67
2023-03-21T01:04:13.599Z,1.27
2023-03-21T01:06:42.454Z,0.95
2023-03-21T01:09:14.050Z,1.50
2023-03-21T01:11:45.248Z,1.50
2023-03-21T01:14:23.800Z,1.20
2023-03-21T01:16:56.075Z,1.45
2023-03-21T01:19:44.273Z,1.52
2023-03-21T01:22:14.889Z,1.40
2023-03-21T01:24:52.416Z,1.08
2023-03-21T01:27:22.820Z,1.00
2023-03-21T01:29:49.660Z,1.40
2023-03-21T01:32:20.890Z,1.58
2023-03-21T01:34:47.446Z,1.15
2023-03-21T01:37:17.865Z,1.13
2023-03-21T01:39:44.452Z,1.20
2023-03-21T01:42:14.661Z,1.13
2023-03-21T01:45:07.201Z,1.40
2023-03-21T01:47:36.164Z,1.23
2023-03-21T01:50:04.413Z,1.25
2023-03-21T01:52:41.698Z,1.50
2023-03-21T01:55:12.743Z,1.20
2023-03-21T01:58:02.425Z,1.40
2023-03-21T02:00:32.113Z,1.05
2023-03-21T02:03:11.499Z,1.15
2023-03-21T02:06:03.286Z,1.30
2023-03-21T02:08:39.475Z,1.42
2023-03-21T02:11:07.807Z,1.35
2023-03-21T02:13:42.114Z,1.30
2023-03-21T02:16:21.833Z,1.60
2023-03-21T02:18:48.380Z,1.43
2023-03-21T02:21:53.127Z,1.27
2023-03-21T02:24:32.466Z,1.85
2023-03-21T02:27:18.933Z,1.40
2023-03-21T02:30:13.070Z,1.35
2023-03-21T02:33:31.630Z,1.20
2023-03-21T02:36:14.423Z,1.33
2023-03-21T02:38:43.988Z,1.30
2023-03-21T02:41:19.539Z,1.20
2023-03-21T02:43:55.563Z,1.30
2023-03-21T02:46:45.571Z,1.37
2023-03-21T02:49:31.463Z,1.42
2023-03-21T02:52:05.500Z,1.58
2023-03-21T02:54:48.409Z,1.77
2023-03-21T02:57:19.432Z,1.75
2023-03-21T02:59:55.697Z,1.40
2023-03-21T03:02:27.446Z,1.27
2023-03-21T03:04:56.321Z,1.58
2023-03-21T03:07:31.552Z,1.73
2023-03-21T03:10:16.376Z,1.40
2023-03-21T03:13:00.966Z,1.40
2023-03-21T03:15:59.911Z,1.30
2023-03-21T03:18:54.426Z,1.27
2023-03-21T03:21:37.991Z,1.40
2023-03-21T03:24:11.852Z,1.40
2023-03-21T03:26:48.251Z,1.43
2023-03-21T03:29:20.862Z,1.52
2023-03-21T03:32:01.904Z,1.33
2023-03-21T03:34:40.790Z,1.15
2023-03-21T03:37:13.559Z,1.33
2023-03-21T03:39:49.919Z,1.23
2023-03-21T03:42:30.411Z,1.60
2023-03-21T03:44:57.602Z,1.30
2023-03-21T03:47:41.951Z,1.40
2023-03-21T03:50:44.604Z,1.35
2023-03-21T03:53:25.810Z,1.60
2023-03-21T03:55:58.076Z,1.30
2023-03-21T03:58:39.546Z,1.20
2023-03-21T04:01:14.221Z,1.30
2023-03-21T04:03:50.210Z,1.70
2023-03-21T04:06:22.285Z,1.70
2023-03-21T04:08:48.893Z,1.70
2023-03-21T04:11:16.313Z,1.50
2023-03-21T04:13:50.969Z,1.60
2023-03-21T04:16:17.592Z,1.50
2023-03-21T04:18:44.219Z,1.63
2023-03-21T04:21:12.909Z,1.60
2023-03-21T04:23:42.633Z,1.60
2023-03-21T04:26:13.093Z,1.50
2023-03-21T04:28:41.894Z,1.30
2023-03-21T04:31:24.456Z,1.87
2023-03-21T04:33:55.906Z,1.73
2023-03-21T04:36:27.466Z,1.70
2023-03-21T04:38:54.976Z,1.70
2023-03-21T04:41:21.614Z,1.80
2023-03-21T04:43:52.417Z,2.20
2023-03-21T04:46:21.890Z,2.03
2023-03-21T04:48:51.418Z,1.90
2023-03-21T04:51:20.323Z,2.10
2023-03-21T04:53:49.504Z,2.30
2023-03-21T04:56:18.360Z,2.57
2023-03-21T04:58:50.248Z,2.33
2023-03-21T05:01:20.240Z,2.60
2023-03-21T05:03:46.918Z,2.30
2023-03-21T05:06:13.525Z,2.30
2023-03-21T05:08:41.523Z,2.00
2023-03-21T05:11:08.074Z,2.50
2023-03-21T05:13:34.651Z,2.70
2023-03-21T05:16:01.273Z,2.70
2023-03-21T05:18:34.874Z,2.38
2023-03-21T05:21:05.138Z,2.60
2023-03-21T05:23:31.792Z,2.22
2023-03-21T05:26:00.762Z,2.30
2023-03-21T05:28:36.183Z,2.88
2023-03-21T05:31:06.223Z,2.45
2023-03-21T05:33:35.060Z,2.10
2023-03-21T05:36:04.330Z,2.65
2023-03-21T05:38:31.234Z,2.33
2023-03-21T05:41:00.380Z,2.85
2023-03-21T05:43:29.555Z,2.33
2023-03-21T05:45:59.238Z,2.83
2023-03-21T05:48:25.874Z,2.78
2023-03-21T05:50:54.858Z,2.30
2023-03-21T05:53:23.483Z,2.17
2023-03-21T05:55:50.117Z,2.45
2023-03-21T05:58:16.669Z,2.23
2023-03-21T06:00:43.226Z,2.55
2023-03-21T06:03:12.284Z,2.75
2023-03-21T06:05:39.055Z,2.83
2023-03-21T06:08:06.161Z,2.50
2023-03-21T06:10:34.931Z,2.60
2023-03-21T06:13:03.698Z,2.75
2023-03-21T06:15:32.922Z,2.40
2023-03-21T06:17:59.575Z,2.58
2023-03-21T06:20:26.382Z,2.33
2023-03-21T06:22:55.211Z,3.30
2023-03-21T06:25:21.903Z,2.63
2023-03-21T06:27:48.430Z,2.20
2023-03-21T06:30:15.780Z,2.30
2023-03-21T06:32:42.339Z,2.20
2023-03-21T06:35:09.410Z,2.80
2023-03-21T06:37:35.962Z,3.33
2023-03-21T06:40:02.738Z,3.17
2023-03-21T06:42:30.106Z,2.92
2023-03-21T06:44:56.724Z,2.03
2023-03-21T06:47:28.086Z,2.53
2023-03-21T06:49:57.892Z,2.42
2023-03-21T06:52:29.168Z,2.38
2023-03-21T06:54:56.312Z,2.53
2023-03-21T06:57:27.554Z,4.13
2023-03-21T06:59:56.371Z,2.50
2023-03-21T07:02:25.227Z,2.30
2023-03-21T07:04:51.809Z,2.60
2023-03-21T07:07:18.416Z,3.03
2023-03-21T07:09:44.998Z,2.60
2023-03-21T07:12:11.567Z,3.00
2023-03-21T07:14:40.523Z,3.22
2023-03-21T07:17:09.298Z,2.80
2023-03-21T07:19:38.201Z,2.88
2023-03-21T07:22:07.116Z,2.55
2023-03-21T07:24:33.732Z,2.90
2023-03-21T07:27:00.312Z,3.00
2023-03-21T07:29:29.814Z,2.60
2023-03-21T07:31:58.767Z,2.50
2023-03-21T07:34:27.354Z,2.67
2023-03-21T07:36:53.971Z,2.90
2023-03-21T07:39:26.141Z,2.50
2023-03-21T07:41:59.974Z,2.88
2023-03-21T07:44:27.194Z,2.90
2023-03-21T07:46:56.174Z,2.90
2023-03-21T07:49:25.038Z,3.20
2023-03-21T07:51:56.491Z,2.60
2023-03-21T07:54:25.586Z,2.55
2023-03-21T07:56:54.385Z,2.83
2023-03-21T07:59:21.041Z,3.10
2023-03-21T08:01:47.664Z,3.00
2023-03-21T08:04:16.477Z,2.80
2023-03-21T08:06:43.067Z,3.38
2023-03-21T08:09:09.924Z,2.75
2023-03-21T08:11:36.859Z,2.63
2023-03-21T08:14:03.423Z,2.77
2023-03-21T08:16:32.350Z,2.90
2023-03-21T08:19:04.186Z,3.15
2023-03-21T08:21:33.747Z,2.80
2023-03-21T08:24:00.410Z,2.78
2023-03-21T08:26:27.067Z,2.77
2023-03-21T08:28:53.663Z,3.33
2023-03-21T08:31:22.372Z,3.05
2023-03-21T08:33:54.306Z,3.00
2023-03-21T08:36:24.139Z,2.70
2023-03-21T08:38:54.253Z,2.60
2023-03-21T08:41:22.181Z,2.72
2023-03-21T08:43:49.301Z,2.70
2023-03-21T08:46:18.124Z,2.70
2023-03-21T08:48:44.719Z,2.65
2023-03-21T08:51:11.305Z,2.87
2023-03-21T08:53:41.560Z,2.92
2023-03-21T08:56:08.601Z,2.95
2023-03-21T08:58:35.249Z,2.90
2023-03-21T09:01:05.004Z,2.80
2023-03-21T09:03:31.610Z,3.20
2023-03-21T09:05:59.059Z,2.95
2023-03-21T09:08:25.672Z,2.92
2023-03-21T09:10:56.246Z,2.80
2023-03-21T09:13:25.252Z,2.83
2023-03-21T09:15:53.057Z,2.93
2023-03-21T09:18:38.671Z,2.80
2023-03-21T09:21:12.798Z,3.17
2023-03-21T09:23:39.868Z,3.10
2023-03-21T09:26:10.498Z,2.88
2023-03-21T09:28:40.603Z,2.73
2023-03-21T09:31:11.908Z,3.10
2023-03-21T09:33:43.919Z,2.97
2023-03-21T09:36:15.497Z,2.80
2023-03-21T09:38:45.585Z,3.38
2023-03-21T09:41:52.816Z,3.23
2023-03-21T09:44:37.912Z,2.90
2023-03-21T09:47:29.003Z,2.70
2023-03-21T09:50:13.475Z,2.70
2023-03-21T09:52:47.941Z,3.20
2023-03-21T09:55:26.334Z,2.73
2023-03-21T09:58:04.361Z,3.28
2023-03-21T10:00:40.202Z,2.45
2023-03-21T10:03:20.136Z,2.67
2023-03-21T10:05:57.540Z,2.67
2023-03-21T10:08:37.677Z,2.53
2023-03-21T10:11:27.382Z,2.60
2023-03-21T10:14:23.300Z,2.25
2023-03-21T10:16:59.582Z,2.60
2023-03-21T10:19:29.623Z,2.20
2023-03-21T10:22:01.329Z,2.67
2023-03-21T10:24:36.838Z,2.80
2023-03-21T10:27:05.363Z,2.55
2023-03-21T10:29:43.632Z,2.60
2023-03-21T10:32:15.378Z,2.50
2023-03-21T10:34:45.028Z,2.73
2023-03-21T10:37:14.044Z,2.40
2023-03-21T10:39:48.442Z,2.50
2023-03-21T10:42:28.566Z,2.50
2023-03-21T10:45:02.396Z,2.50
2023-03-21T10:47:34.284Z,2.60
2023-03-21T10:50:16.021Z,2.72
2023-03-21T10:52:55.658Z,2.70
2023-03-21T10:55:29.141Z,2.42
2023-03-21T10:58:02.871Z,2.50
2023-03-21T11:00:37.090Z,8.00
2023-03-21T11:03:06.904Z,3.42
2023-03-21T11:05:42.410Z,2.22
2023-03-21T11:08:18.638Z,2.47
2023-03-21T11:10:59.618Z,2.83
2023-03-21T11:13:33.540Z,3.60
2023-03-21T11:16:12.430Z,10.38
2023-03-21T11:18:50.088Z,3.13
2023-03-21T11:21:17.759Z,2.35
2023-03-21T11:23:52.928Z,2.13
2023-03-21T11:26:33.251Z,2.30
2023-03-21T11:29:02.772Z,2.45
2023-03-21T11:31:40.186Z,2.38
2023-03-21T11:34:24.149Z,2.80
2023-03-21T11:36:51.189Z,2.60
2023-03-21T11:39:44.463Z,2.37
2023-03-21T11:42:29.285Z,2.15
2023-03-21T11:45:05.248Z,2.15
2023-03-21T11:47:34.245Z,2.13
2023-03-21T11:50:05.212Z,2.33
2023-03-21T11:52:41.608Z,2.17
2023-03-21T11:55:19.679Z,2.40
2023-03-21T11:58:14.879Z,2.08
2023-03-21T12:00:44.302Z,2.00
2023-03-21T12:03:47.086Z,2.13
2023-03-21T12:06:31.268Z,2.50
2023-03-21T12:09:18.604Z,2.50
2023-03-21T12:12:08.949Z,2.10
2023-03-21T12:14:44.494Z,2.60
2023-03-21T12:17:20.011Z,2.47
2023-03-21T12:20:00.957Z,2.37
2023-03-21T12:22:27.471Z,2.58
2023-03-21T12:24:58.720Z,2.08
2023-03-21T12:27:50.975Z,2.33
2023-03-21T12:30:29.730Z,2.38
2023-03-21T12:33:06.768Z,2.33
2023-03-21T12:35:44.560Z,2.45
2023-03-21T12:38:28.519Z,2.53
2023-03-21T12:41:20.484Z,2.47
2023-03-21T12:43:49.968Z,2.47
2023-03-21T12:46:40.567Z,2.70
2023-03-21T12:49:19.300Z,2.92
2023-03-21T12:51:54.398Z,3.17
2023-03-21T12:54:31.469Z,3.22
2023-03-21T12:57:17.883Z,2.42
2023-03-21T12:59:51.494Z,2.63
2023-03-21T13:02:32.088Z,2.28
2023-03-21T13:05:14.162Z,2.33
2023-03-21T13:07:44.011Z,2.65
2023-03-21T13:10:16.737Z,2.78
2023-03-21T13:13:10.090Z,2.90
2023-03-21T13:15:48.871Z,2.33
2023-03-21T13:18:34.307Z,2.90
2023-03-21T13:21:13.166Z,2.58
2023-03-21T13:23:56.037Z,2.90
2023-03-21T13:26:33.619Z,2.13
2023-03-21T13:29:02.716Z,2.88
2023-03-21T13:31:33.911Z,2.42
2023-03-21T13:34:09.444Z,2.35
2023-03-21T13:36:39.687Z,2.58
2023-03-21T13:39:26.480Z,2.57
2023-03-21T13:41:54.722Z,2.58
2023-03-21T13:44:43.512Z,2.72
2023-03-21T13:47:36.941Z,2.90
2023-03-21T13:50:21.495Z,2.30
2023-03-21T13:53:03.476Z,2.73
2023-03-21T13:55:44.609Z,2.72
2023-03-21T13:58:34.902Z,2.90
2023-03-21T14:01:10.627Z,2.58
2023-03-21T14:03:40.022Z,3.00
2023-03-21T14:06:07.110Z,2.70
2023-03-21T14:08:37.664Z,2.65
2023-03-21T14:11:12.320Z,2.63
2023-03-21T14:13:50.770Z,2.13
2023-03-21T14:16:25.574Z,2.90
2023-03-21T14:18:56.458Z,2.57
2023-03-21T14:21:29.529Z,2.38
2023-03-21T14:23:57.563Z,2.22
2023-03-21T14:26:25.685Z,2.50
2023-03-21T14:28:55.292Z,2.33
2023-03-21T14:31:21.957Z,2.20
2023-03-21T14:33:54.626Z,2.85
2023-03-21T14:36:27.821Z,2.50
2023-03-21T14:38:57.755Z,2.58
2023-03-21T14:41:29.232Z,2.70
2023-03-21T14:44:11.123Z,2.60
2023-03-21T14:46:42.762Z,2.40
2023-03-21T14:49:12.416Z,2.55
2023-03-21T14:51:39.245Z,2.45
2023-03-21T14:54:06.574Z,3.20
2023-03-21T14:56:38.456Z,2.83
2023-03-21T14:59:05.119Z,2.72
2023-03-21T15:01:34.784Z,2.50
2023-03-21T15:04:06.565Z,2.15
2023-03-21T15:06:52.402Z,2.92
2023-03-21T15:09:20.794Z,3.23
2023-03-21T15:11:53.829Z,3.10
2023-03-21T15:14:27.058Z,2.40
2023-03-21T15:16:55.377Z,2.80
2023-03-21T15:19:30.784Z,2.47
2023-03-21T15:22:03.300Z,2.37
2023-03-21T15:24:39.653Z,1.98
2023-03-21T15:27:17.483Z,2.38
2023-03-21T15:29:45.156Z,2.30
2023-03-21T15:32:19.378Z,2.17
2023-03-21T15:34:49.327Z,2.80
2023-03-21T15:37:25.726Z,2.63
2023-03-21T15:40:05.970Z,2.17
2023-03-21T15:42:37.435Z,1.92
2023-03-21T15:45:17.326Z,1.90
2023-03-21T15:48:26.231Z,2.20
2023-03-21T15:51:01.658Z,2.08
2023-03-21T15:53:32.744Z,2.08
2023-03-21T15:56:04.129Z,1.65
2023-03-21T15:58:43.994Z,1.80
2023-03-21T16:01:20.036Z,1.80
2023-03-21T16:03:52.392Z,1.60
2023-03-21T16:06:25.654Z,1.75
2023-03-21T16:09:05.565Z,1.80
2023-03-21T16:11:53.176Z,1.92
2023-03-21T16:14:21.534Z,1.90
2023-03-21T16:16:49.507Z,1.70
2023-03-21T16:19:16.966Z,1.48
2023-03-21T16:21:43.814Z,1.73
2023-03-21T16:24:11.732Z,1.60
2023-03-21T16:26:43.706Z,1.93
2023-03-21T16:29:19.553Z,2.00
2023-03-21T16:31:49.398Z,1.92
2023-03-21T16:34:18.377Z,2.13
2023-03-21T16:36:45.000Z,1.90
2023-03-21T16:39:22.570Z,2.23
2023-03-21T16:41:50.579Z,1.45
2023-03-21T16:44:20.176Z,1.80
2023-03-21T16:46:47.353Z,1.80
2023-03-21T16:49:24.962Z,1.55
2023-03-21T16:51:52.090Z,1.27
2023-03-21T16:54:18.749Z,1.63
2023-03-21T16:56:55.980Z,1.45
2023-03-21T16:59:22.669Z,1.77
2023-03-21T17:01:50.151Z,1.88
2023-03-21T17:04:18.362Z,1.50
2023-03-21T17:06:49.375Z,2.15
2023-03-21T17:09:17.389Z,1.48
2023-03-21T17:11:44.472Z,1.45
2023-03-21T17:14:13.014Z,1.90
2023-03-21T17:16:43.309Z,1.63
2023-03-21T17:19:12.852Z,2.25
2023-03-21T17:21:40.471Z,2.80
2023-03-21T17:24:11.871Z,2.38
2023-03-21T17:26:38.537Z,2.33
2023-03-21T17:29:07.560Z,2.17
2023-03-21T17:31:36.981Z,2.05
2023-03-21T17:34:04.556Z,1.60
2023-03-21T17:36:36.617Z,2.00
2023-03-21T17:39:06.095Z,1.80
2023-03-21T17:41:37.894Z,1.83
2023-03-21T17:44:04.592Z,1.70
2023-03-21T17:46:38.767Z,1.67
2023-03-21T17:49:06.730Z,1.67
2023-03-21T17:51:35.844Z,1.40
2023-03-21T17:54:02.482Z,1.67
2023-03-21T17:56:32.697Z,1.90
2023-03-21T17:59:05.772Z,1.40
2023-03-21T18:01:35.505Z,1.20
2023-03-21T18:04:05.214Z,1.50
2023-03-21T18:06:37.507Z,1.30
2023-03-21T18:09:10.978Z,1.10
2023-03-21T18:11:39.208Z,0.77
2023-03-21T18:14:17.511Z,1.45
2023-03-21T18:16:47.949Z,1.40
2023-03-21T18:19:14.900Z,1.10
2023-03-21T18:21:44.873Z,1.50
2023-03-21T18:24:14.144Z,1.10
2023-03-21T18:26:41.214Z,1.10
2023-03-21T18:32:06.463Z,1.20
2023-03-21T18:34:38.851Z,1.35
2023-03-21T18:37:08.189Z,0.80
2023-03-21T18:39:39.922Z,0.90
2023-03-21T18:42:07.166Z,1.00
2023-03-21T18:44:45.566Z,1.07
2023-03-21T18:47:15.125Z,1.48
2023-03-21T18:50:12.504Z,1.10
2023-03-21T18:52:28.662Z,0.95
2023-03-21T18:54:55.518Z,0.90
2023-03-21T18:57:38.637Z,0.90
2023-03-21T19:00:17.528Z,1.42
2023-03-21T19:02:50.637Z,1.60
2023-03-21T19:05:19.989Z,1.40
2023-03-21T19:07:51.611Z,1.60
2023-03-21T19:10:24.960Z,1.40
2023-03-21T19:12:53.018Z,1.13
2023-03-21T19:15:24.058Z,1.60
2023-03-21T19:20:48.087Z,1.30
2023-03-21T19:23:18.702Z,1.53
2023-03-21T19:25:45.379Z,1.95
2023-03-21T19:28:14.464Z,1.30
2023-03-21T19:30:49.108Z,1.30
2023-03-21T19:33:20.108Z,1.40
2023-03-21T19:36:08.945Z,1.40
2023-03-21T19:38:37.751Z,1.00
2023-03-21T19:41:04.428Z,0.93
2023-03-21T19:43:33.368Z,1.35
2023-03-21T19:46:05.208Z,1.10
2023-03-21T19:48:32.729Z,1.07
2023-03-21T19:51:26.974Z,1.48
2023-03-21T19:53:49.005Z,1.60
2023-03-21T19:56:22.269Z,1.17
2023-03-21T19:58:51.685Z,1.00
2023-03-21T20:01:18.374Z,1.20
2023-03-21T20:03:44.952Z,1.10
2023-03-21T20:06:13.760Z,1.10
2023-03-21T20:09:13.643Z,1.40
2023-03-21T20:11:32.352Z,1.73
2023-03-21T20:14:03.084Z,1.90
2023-03-21T20:16:35.784Z,1.85
2023-03-21T20:19:08.724Z,2.05
2023-03-21T20:21:47.617Z,1.48
2023-03-21T20:24:16.857Z,1.30
2023-03-21T20:26:46.501Z,1.23
2023-03-21T20:32:02.274Z,1.50
2023-03-21T20:34:30.448Z,1.42
2023-03-21T20:37:00.032Z,1.70
2023-03-21T20:39:33.882Z,2.07
2023-03-21T20:42:03.940Z,1.20
2023-03-21T20:47:19.997Z,3.10
2023-03-21T20:49:46.578Z,2.25
2023-03-21T20:55:08.995Z,1.88
2023-03-21T20:57:38.566Z,2.10
2023-03-21T21:00:13.619Z,2.00
2023-03-21T21:02:41.471Z,1.80
2023-03-21T21:05:25.384Z,1.60
2023-03-21T21:07:57.367Z,2.15
2023-03-21T21:10:26.917Z,1.90
2023-03-21T21:12:56.188Z,2.15
2023-03-21T21:15:25.328Z,1.88
2023-03-21T21:18:06.442Z,1.90
2023-03-21T21:20:40.189Z,1.35
2023-03-21T21:23:09.712Z,1.60
2023-03-21T21:25:37.562Z,2.28
2023-03-21T21:28:09.209Z,2.00
2023-03-21T21:30:39.341Z,2.13
2023-03-21T21:33:06.162Z,2.40
2023-03-21T21:35:35.945Z,2.10
2023-03-21T21:38:04.754Z,2.30
2023-03-21T21:40:34.240Z,2.72
2023-03-21T21:43:03.800Z,2.43
2023-03-21T21:45:32.979Z,2.83
2023-03-21T21:48:02.170Z,2.40
2023-03-21T21:50:31.352Z,3.05
2023-03-21T21:52:57.937Z,2.42
2023-03-21T21:55:24.525Z,2.30
2023-03-21T21:57:53.139Z,2.45
2023-03-21T22:00:20.358Z,2.40
2023-03-21T22:02:47.188Z,2.17
2023-03-21T22:05:17.120Z,2.30
2023-03-21T22:07:45.903Z,2.07
2023-03-21T22:10:12.546Z,2.17
2023-03-21T22:12:41.493Z,1.98
2023-03-21T22:15:11.954Z,2.00
2023-03-21T22:17:42.294Z,2.22
2023-03-21T22:20:16.826Z,1.70
2023-03-21T22:22:43.536Z,1.92
2023-03-21T22:25:14.862Z,1.58
2023-03-21T22:27:42.176Z,1.50
2023-03-21T22:30:13.809Z,1.60
2023-03-21T22:32:44.789Z,1.43
2023-03-21T22:35:14.314Z,1.45
2023-03-21T22:37:42.206Z,2.10
2023-03-21T22:40:13.220Z,1.70
2023-03-21T22:42:46.053Z,1.60
2023-03-21T22:45:14.624Z,2.53
2023-03-21T22:47:43.787Z,2.30
2023-03-21T22:50:13.111Z,2.03
2023-03-21T22:52:41.950Z,2.17
2023-03-21T22:55:12.678Z,2.10
2023-03-21T22:57:39.274Z,2.30
2023-03-21T23:00:13.260Z,2.13
2023-03-21T23:02:41.408Z,2.50
2023-03-21T23:05:10.626Z,2.38
2023-03-21T23:07:39.626Z,2.45
2023-03-21T23:10:12.079Z,2.50
2023-03-21T23:12:41.266Z,2.90
2023-03-21T23:15:09.096Z,2.40
2023-03-21T23:17:38.569Z,2.65
2023-03-21T23:20:07.878Z,2.15
2023-03-21T23:22:40.048Z,2.57
2023-03-21T23:25:09.369Z,2.90
2023-03-21T23:27:36.017Z,2.30
2023-03-21T23:30:04.977Z,2.70
2023-03-21T23:32:31.572Z,2.50
2023-03-21T23:34:58.667Z,2.37
2023-03-21T23:37:26.167Z,2.50
2023-03-21T23:39:55.385Z,2.22
2023-03-21T23:42:23.243Z,3.08
2023-03-21T23:44:49.849Z,2.65
2023-03-21T23:47:16.765Z,1.83
2023-03-21T23:49:45.312Z,2.40
2023-03-21T23:52:12.039Z,1.98
2023-03-21T23:54:40.766Z,1.77
2023-03-21T23:57:07.355Z,2.05
2023-03-21T23:59:34.081Z,2.30
